sensor_id;sensor_type;location;lat;lon;timestamp;temperature;humidity
76239;SHT30;65043;48.392;-4.472;2022-12-01T00:01:30;9.19;67.20
76239;SHT30;65043;48.392;-4.472;2022-12-01T00:03:55;9.19;67.19
76239;SHT30;65043;48.392;-4.472;2022-12-01T00:06:21;9.18;67.25
76239;SHT30;65043;48.392;-4.472;2022-12-01T00:08:49;9.18;67.26
76239;SHT30;65043;48.392;-4.472;2022-12-01T00:11:35;9.16;67.15
76239;SHT30;65043;48.392;-4.472;2022-12-01T00:14:01;9.20;67.17
76239;SHT30;65043;48.392;-4.472;2022-12-01T00:16:30;9.16;67.30
76239;SHT30;65043;48.392;-4.472;2022-12-01T00:18:56;9.16;67.33
76239;SHT30;65043;48.392;-4.472;2022-12-01T00:21:23;9.18;67.47
76239;SHT30;65043;48.392;-4.472;2022-12-01T00:23:52;9.20;67.32
76239;SHT30;65043;48.392;-4.472;2022-12-01T00:26:19;9.20;67.28
76239;SHT30;65043;48.392;-4.472;2022-12-01T00:28:52;9.18;67.26
76239;SHT30;65043;48.392;-4.472;2022-12-01T00:31:18;9.20;67.21
76239;SHT30;65043;48.392;-4.472;2022-12-01T00:33:44;9.19;67.08
76239;SHT30;65043;48.392;-4.472;2022-12-01T00:36:10;9.20;67.08
76239;SHT30;65043;48.392;-4.472;2022-12-01T00:38:35;9.19;67.02
76239;SHT30;65043;48.392;-4.472;2022-12-01T00:41:01;9.22;67.14
76239;SHT30;65043;48.392;-4.472;2022-12-01T00:43:27;9.19;67.27
76239;SHT30;65043;48.392;-4.472;2022-12-01T00:45:52;9.22;67.23
76239;SHT30;65043;48.392;-4.472;2022-12-01T00:48:18;9.22;67.12
76239;SHT30;65043;48.392;-4.472;2022-12-01T00:50:43;9.22;67.07
76239;SHT30;65043;48.392;-4.472;2022-12-01T00:53:09;9.23;67.15
76239;SHT30;65043;48.392;-4.472;2022-12-01T00:55:34;9.22;67.02
76239;SHT30;65043;48.392;-4.472;2022-12-01T00:58:00;9.22;67.00
76239;SHT30;65043;48.392;-4.472;2022-12-01T01:00:25;9.19;67.02
76239;SHT30;65043;48.392;-4.472;2022-12-01T01:02:51;9.18;66.96
76239;SHT30;65043;48.392;-4.472;2022-12-01T01:05:16;9.20;66.99
76239;SHT30;65043;48.392;-4.472;2022-12-01T01:07:42;9.18;66.99
76239;SHT30;65043;48.392;-4.472;2022-12-01T01:10:07;9.12;67.04
76239;SHT30;65043;48.392;-4.472;2022-12-01T01:12:33;9.12;67.06
76239;SHT30;65043;48.392;-4.472;2022-12-01T01:14:58;9.12;67.06
76239;SHT30;65043;48.392;-4.472;2022-12-01T01:17:23;9.08;67.17
76239;SHT30;65043;48.392;-4.472;2022-12-01T01:19:51;9.08;67.27
76239;SHT30;65043;48.392;-4.472;2022-12-01T01:22:17;9.08;67.37
76239;SHT30;65043;48.392;-4.472;2022-12-01T01:24:42;9.04;67.37
76239;SHT30;65043;48.392;-4.472;2022-12-01T01:27:08;9.05;67.23
76239;SHT30;65043;48.392;-4.472;2022-12-01T01:29:33;9.04;67.37
76239;SHT30;65043;48.392;-4.472;2022-12-01T01:31:58;9.05;67.29
76239;SHT30;65043;48.392;-4.472;2022-12-01T01:34:24;9.02;67.21
76239;SHT30;65043;48.392;-4.472;2022-12-01T01:36:49;9.01;67.24
76239;SHT30;65043;48.392;-4.472;2022-12-01T01:39:15;9.04;67.41
76239;SHT30;65043;48.392;-4.472;2022-12-01T01:41:40;9.05;67.36
76239;SHT30;65043;48.392;-4.472;2022-12-01T01:47:08;9.05;67.40
76239;SHT30;65043;48.392;-4.472;2022-12-01T01:49:34;9.05;67.43
76239;SHT30;65043;48.392;-4.472;2022-12-01T01:52:01;9.04;67.48
76239;SHT30;65043;48.392;-4.472;2022-12-01T01:54:50;9.01;67.46
76239;SHT30;65043;48.392;-4.472;2022-12-01T01:57:22;8.99;67.37
76239;SHT30;65043;48.392;-4.472;2022-12-01T01:59:52;8.98;67.60
76239;SHT30;65043;48.392;-4.472;2022-12-01T02:02:19;8.98;67.66
76239;SHT30;65043;48.392;-4.472;2022-12-01T02:04:47;8.98;67.64
76239;SHT30;65043;48.392;-4.472;2022-12-01T02:07:16;8.96;67.74
76239;SHT30;65043;48.392;-4.472;2022-12-01T02:09:42;8.96;67.66
76239;SHT30;65043;48.392;-4.472;2022-12-01T02:25:52;8.92;67.59
76239;SHT30;65043;48.392;-4.472;2022-12-01T02:34:09;8.82;67.37
76239;SHT30;65043;48.392;-4.472;2022-12-01T02:36:44;8.82;67.38
76239;SHT30;65043;48.392;-4.472;2022-12-01T02:41:39;8.76;67.31
76239;SHT30;65043;48.392;-4.472;2022-12-01T02:44:17;8.71;67.34
76239;SHT30;65043;48.392;-4.472;2022-12-01T02:49:48;8.67;67.47
76239;SHT30;65043;48.392;-4.472;2022-12-01T02:52:15;8.68;67.45
76239;SHT30;65043;48.392;-4.472;2022-12-01T02:54:43;8.63;67.55
76239;SHT30;65043;48.392;-4.472;2022-12-01T02:57:13;8.65;67.58
76239;SHT30;65043;48.392;-4.472;2022-12-01T02:59:41;8.63;67.73
76239;SHT30;65043;48.392;-4.472;2022-12-01T03:12:21;8.60;67.86
76239;SHT30;65043;48.392;-4.472;2022-12-01T03:15:04;8.57;67.78
76239;SHT30;65043;48.392;-4.472;2022-12-01T03:18:09;8.57;67.98
76239;SHT30;65043;48.392;-4.472;2022-12-01T03:23:24;8.53;67.83
76239;SHT30;65043;48.392;-4.472;2022-12-01T03:25:53;8.53;68.01
76239;SHT30;65043;48.392;-4.472;2022-12-01T03:28:22;8.51;68.01
76239;SHT30;65043;48.392;-4.472;2022-12-01T03:30:56;8.53;67.93
76239;SHT30;65043;48.392;-4.472;2022-12-01T03:33:30;8.53;67.94
76239;SHT30;65043;48.392;-4.472;2022-12-01T03:36:09;8.50;68.09
76239;SHT30;65043;48.392;-4.472;2022-12-01T03:38:36;8.50;68.04
76239;SHT30;65043;48.392;-4.472;2022-12-01T03:41:09;8.50;68.17
76239;SHT30;65043;48.392;-4.472;2022-12-01T03:43:40;8.50;68.03
76239;SHT30;65043;48.392;-4.472;2022-12-01T03:49:06;8.48;68.11
76239;SHT30;65043;48.392;-4.472;2022-12-01T03:54:43;8.43;68.02
76239;SHT30;65043;48.392;-4.472;2022-12-01T03:57:14;8.43;68.17
76239;SHT30;65043;48.392;-4.472;2022-12-01T03:59:43;8.41;67.97
76239;SHT30;65043;48.392;-4.472;2022-12-01T04:02:09;8.38;68.05
76239;SHT30;65043;48.392;-4.472;2022-12-01T04:04:35;8.38;67.99
76239;SHT30;65043;48.392;-4.472;2022-12-01T04:07:01;8.33;67.97
76239;SHT30;65043;48.392;-4.472;2022-12-01T04:09:27;8.32;68.07
76239;SHT30;65043;48.392;-4.472;2022-12-01T04:11:52;8.32;68.13
76239;SHT30;65043;48.392;-4.472;2022-12-01T04:14:36;8.29;68.30
76239;SHT30;65043;48.392;-4.472;2022-12-01T04:17:01;8.29;68.50
76239;SHT30;65043;48.392;-4.472;2022-12-01T04:19:27;8.29;68.49
76239;SHT30;65043;48.392;-4.472;2022-12-01T04:21:52;8.29;68.49
76239;SHT30;65043;48.392;-4.472;2022-12-01T04:24:18;8.29;68.91
76239;SHT30;65043;48.392;-4.472;2022-12-01T04:26:43;8.29;68.93
76239;SHT30;65043;48.392;-4.472;2022-12-01T04:29:11;8.33;69.05
76239;SHT30;65043;48.392;-4.472;2022-12-01T04:31:36;8.36;68.90
76239;SHT30;65043;48.392;-4.472;2022-12-01T04:34:02;8.38;69.14
76239;SHT30;65043;48.392;-4.472;2022-12-01T04:36:32;8.38;69.20
76239;SHT30;65043;48.392;-4.472;2022-12-01T04:38:58;8.38;69.18
76239;SHT30;65043;48.392;-4.472;2022-12-01T04:41:24;8.40;69.21
76239;SHT30;65043;48.392;-4.472;2022-12-01T04:43:52;8.40;69.08
76239;SHT30;65043;48.392;-4.472;2022-12-01T04:46:18;8.40;68.79
76239;SHT30;65043;48.392;-4.472;2022-12-01T04:48:43;8.37;68.66
76239;SHT30;65043;48.392;-4.472;2022-12-01T04:51:09;8.34;68.87
76239;SHT30;65043;48.392;-4.472;2022-12-01T04:53:35;8.37;68.98
76239;SHT30;65043;48.392;-4.472;2022-12-01T04:56:01;8.33;68.84
76239;SHT30;65043;48.392;-4.472;2022-12-01T04:58:29;8.32;68.91
76239;SHT30;65043;48.392;-4.472;2022-12-01T05:00:59;8.32;68.94
76239;SHT30;65043;48.392;-4.472;2022-12-01T05:03:25;8.30;68.94
76239;SHT30;65043;48.392;-4.472;2022-12-01T05:06:01;8.27;69.05
76239;SHT30;65043;48.392;-4.472;2022-12-01T05:08:27;8.29;68.97
76239;SHT30;65043;48.392;-4.472;2022-12-01T05:10:56;8.29;69.09
76239;SHT30;65043;48.392;-4.472;2022-12-01T05:13:22;8.29;68.98
76239;SHT30;65043;48.392;-4.472;2022-12-01T05:15:47;8.27;68.90
76239;SHT30;65043;48.392;-4.472;2022-12-01T05:18:13;8.29;68.90
76239;SHT30;65043;48.392;-4.472;2022-12-01T05:20:38;8.24;68.73
76239;SHT30;65043;48.392;-4.472;2022-12-01T05:23:29;8.23;68.92
76239;SHT30;65043;48.392;-4.472;2022-12-01T05:25:55;8.26;69.00
76239;SHT30;65043;48.392;-4.472;2022-12-01T05:28:23;8.23;68.92
76239;SHT30;65043;48.392;-4.472;2022-12-01T05:30:49;8.23;68.87
76239;SHT30;65043;48.392;-4.472;2022-12-01T05:33:15;8.23;68.97
76239;SHT30;65043;48.392;-4.472;2022-12-01T05:35:40;8.23;68.97
76239;SHT30;65043;48.392;-4.472;2022-12-01T05:38:06;8.20;68.84
76239;SHT30;65043;48.392;-4.472;2022-12-01T05:40:32;8.16;68.90
76239;SHT30;65043;48.392;-4.472;2022-12-01T05:42:58;8.16;68.90
76239;SHT30;65043;48.392;-4.472;2022-12-01T05:45:24;8.16;68.96
76239;SHT30;65043;48.392;-4.472;2022-12-01T05:47:54;8.16;69.01
76239;SHT30;65043;48.392;-4.472;2022-12-01T05:50:20;8.13;68.95
76239;SHT30;65043;48.392;-4.472;2022-12-01T05:52:45;8.14;69.07
76239;SHT30;65043;48.392;-4.472;2022-12-01T05:55:10;8.14;68.94
76239;SHT30;65043;48.392;-4.472;2022-12-01T05:57:36;8.14;68.87
76239;SHT30;65043;48.392;-4.472;2022-12-01T06:00:03;8.12;68.94
76239;SHT30;65043;48.392;-4.472;2022-12-01T06:02:29;8.10;69.04
76239;SHT30;65043;48.392;-4.472;2022-12-01T06:04:55;8.07;69.01
76239;SHT30;65043;48.392;-4.472;2022-12-01T06:07:20;8.10;69.11
76239;SHT30;65043;48.392;-4.472;2022-12-01T06:09:47;8.09;69.15
76239;SHT30;65043;48.392;-4.472;2022-12-01T06:12:13;8.06;69.05
76239;SHT30;65043;48.392;-4.472;2022-12-01T06:14:38;8.07;69.22
76239;SHT30;65043;48.392;-4.472;2022-12-01T06:17:04;8.06;69.20
76239;SHT30;65043;48.392;-4.472;2022-12-01T06:19:29;8.06;69.02
76239;SHT30;65043;48.392;-4.472;2022-12-01T06:21:56;8.02;69.21
76239;SHT30;65043;48.392;-4.472;2022-12-01T06:24:22;8.02;69.12
76239;SHT30;65043;48.392;-4.472;2022-12-01T06:26:47;8.02;69.34
76239;SHT30;65043;48.392;-4.472;2022-12-01T06:29:13;8.00;69.46
76239;SHT30;65043;48.392;-4.472;2022-12-01T06:31:38;8.02;69.44
76239;SHT30;65043;48.392;-4.472;2022-12-01T06:34:04;8.02;69.41
76239;SHT30;65043;48.392;-4.472;2022-12-01T06:36:29;8.02;69.50
76239;SHT30;65043;48.392;-4.472;2022-12-01T06:38:55;8.02;69.47
76239;SHT30;65043;48.392;-4.472;2022-12-01T06:41:20;8.02;69.43
76239;SHT30;65043;48.392;-4.472;2022-12-01T06:43:46;8.00;69.61
76239;SHT30;65043;48.392;-4.472;2022-12-01T06:46:11;7.99;69.56
76239;SHT30;65043;48.392;-4.472;2022-12-01T06:48:37;7.97;69.36
76239;SHT30;65043;48.392;-4.472;2022-12-01T06:51:02;7.99;69.40
76239;SHT30;65043;48.392;-4.472;2022-12-01T06:53:28;7.99;69.49
76239;SHT30;65043;48.392;-4.472;2022-12-01T06:55:58;7.95;69.53
76239;SHT30;65043;48.392;-4.472;2022-12-01T06:58:24;7.96;69.49
76239;SHT30;65043;48.392;-4.472;2022-12-01T07:00:49;7.99;69.51
76239;SHT30;65043;48.392;-4.472;2022-12-01T07:03:14;7.97;69.61
76239;SHT30;65043;48.392;-4.472;2022-12-01T07:05:40;7.97;69.49
76239;SHT30;65043;48.392;-4.472;2022-12-01T07:08:05;8.00;69.48
76239;SHT30;65043;48.392;-4.472;2022-12-01T07:10:31;7.97;69.38
76239;SHT30;65043;48.392;-4.472;2022-12-01T07:12:57;7.99;69.50
76239;SHT30;65043;48.392;-4.472;2022-12-01T07:15:22;7.99;69.38
76239;SHT30;65043;48.392;-4.472;2022-12-01T07:17:49;7.92;69.25
76239;SHT30;65043;48.392;-4.472;2022-12-01T07:20:14;7.92;69.42
76239;SHT30;65043;48.392;-4.472;2022-12-01T07:22:39;7.92;69.38
76239;SHT30;65043;48.392;-4.472;2022-12-01T07:25:08;7.90;69.49
76239;SHT30;65043;48.392;-4.472;2022-12-01T07:27:33;7.92;69.39
76239;SHT30;65043;48.392;-4.472;2022-12-01T07:29:59;7.95;69.43
76239;SHT30;65043;48.392;-4.472;2022-12-01T07:32:25;7.90;69.38
76239;SHT30;65043;48.392;-4.472;2022-12-01T07:34:51;7.90;69.35
76239;SHT30;65043;48.392;-4.472;2022-12-01T07:37:16;7.92;69.33
76239;SHT30;65043;48.392;-4.472;2022-12-01T07:39:42;7.92;69.23
76239;SHT30;65043;48.392;-4.472;2022-12-01T07:42:07;7.87;69.15
76239;SHT30;65043;48.392;-4.472;2022-12-01T07:44:32;7.87;69.02
76239;SHT30;65043;48.392;-4.472;2022-12-01T07:46:58;7.82;68.93
76239;SHT30;65043;48.392;-4.472;2022-12-01T07:49:23;7.81;69.04
76239;SHT30;65043;48.392;-4.472;2022-12-01T07:51:48;7.79;69.25
76239;SHT30;65043;48.392;-4.472;2022-12-01T07:54:14;7.81;69.27
76239;SHT30;65043;48.392;-4.472;2022-12-01T07:56:41;7.79;69.29
76239;SHT30;65043;48.392;-4.472;2022-12-01T07:59:06;7.78;69.30
76239;SHT30;65043;48.392;-4.472;2022-12-01T08:01:32;7.74;69.45
76239;SHT30;65043;48.392;-4.472;2022-12-01T08:03:58;7.76;69.46
76239;SHT30;65043;48.392;-4.472;2022-12-01T08:06:25;7.76;69.56
76239;SHT30;65043;48.392;-4.472;2022-12-01T08:08:53;7.72;69.62
76239;SHT30;65043;48.392;-4.472;2022-12-01T08:11:26;7.69;69.46
76239;SHT30;65043;48.392;-4.472;2022-12-01T08:13:54;7.74;69.50
76239;SHT30;65043;48.392;-4.472;2022-12-01T08:16:21;7.72;69.43
76239;SHT30;65043;48.392;-4.472;2022-12-01T08:18:47;7.71;69.48
76239;SHT30;65043;48.392;-4.472;2022-12-01T08:21:15;7.68;69.39
76239;SHT30;65043;48.392;-4.472;2022-12-01T08:23:41;7.66;69.38
76239;SHT30;65043;48.392;-4.472;2022-12-01T08:26:12;7.62;69.29
76239;SHT30;65043;48.392;-4.472;2022-12-01T08:28:38;7.61;69.29
76239;SHT30;65043;48.392;-4.472;2022-12-01T08:31:08;7.59;69.29
76239;SHT30;65043;48.392;-4.472;2022-12-01T08:33:34;7.56;69.33
76239;SHT30;65043;48.392;-4.472;2022-12-01T08:36:04;7.55;69.43
76239;SHT30;65043;48.392;-4.472;2022-12-01T08:38:30;7.54;69.37
76239;SHT30;65043;48.392;-4.472;2022-12-01T08:41:00;7.54;69.40
76239;SHT30;65043;48.392;-4.472;2022-12-01T08:43:26;7.56;69.56
76239;SHT30;65043;48.392;-4.472;2022-12-01T08:45:51;7.56;69.61
76239;SHT30;65043;48.392;-4.472;2022-12-01T08:48:17;7.58;69.57
76239;SHT30;65043;48.392;-4.472;2022-12-01T08:50:42;7.58;69.68
76239;SHT30;65043;48.392;-4.472;2022-12-01T08:53:07;7.59;69.67
76239;SHT30;65043;48.392;-4.472;2022-12-01T08:55:33;7.61;69.62
76239;SHT30;65043;48.392;-4.472;2022-12-01T08:57:58;7.61;69.67
76239;SHT30;65043;48.392;-4.472;2022-12-01T09:00:23;7.62;69.66
76239;SHT30;65043;48.392;-4.472;2022-12-01T09:02:49;7.62;69.53
76239;SHT30;65043;48.392;-4.472;2022-12-01T09:05:14;7.66;69.60
76239;SHT30;65043;48.392;-4.472;2022-12-01T09:07:40;7.66;69.71
76239;SHT30;65043;48.392;-4.472;2022-12-01T09:10:07;7.68;69.48
76239;SHT30;65043;48.392;-4.472;2022-12-01T09:12:33;7.65;69.47
76239;SHT30;65043;48.392;-4.472;2022-12-01T09:14:58;7.71;69.61
76239;SHT30;65043;48.392;-4.472;2022-12-01T09:17:24;7.72;69.58
76239;SHT30;65043;48.392;-4.472;2022-12-01T09:19:49;7.74;69.46
76239;SHT30;65043;48.392;-4.472;2022-12-01T09:22:15;7.75;69.43
76239;SHT30;65043;48.392;-4.472;2022-12-01T09:24:40;7.75;69.48
76239;SHT30;65043;48.392;-4.472;2022-12-01T09:27:06;7.79;69.43
76239;SHT30;65043;48.392;-4.472;2022-12-01T09:29:31;7.83;69.34
76239;SHT30;65043;48.392;-4.472;2022-12-01T09:31:58;7.82;69.25
76239;SHT30;65043;48.392;-4.472;2022-12-01T09:34:24;7.83;69.49
76239;SHT30;65043;48.392;-4.472;2022-12-01T09:36:54;7.85;69.37
76239;SHT30;65043;48.392;-4.472;2022-12-01T09:39:20;7.89;69.41
76239;SHT30;65043;48.392;-4.472;2022-12-01T09:41:49;7.90;69.22
76239;SHT30;65043;48.392;-4.472;2022-12-01T09:50:09;8.00;69.11
76239;SHT30;65043;48.392;-4.472;2022-12-01T09:52:45;8.05;68.99
76239;SHT30;65043;48.392;-4.472;2022-12-01T09:55:14;8.09;68.75
76239;SHT30;65043;48.392;-4.472;2022-12-01T09:57:41;8.09;68.94
76239;SHT30;65043;48.392;-4.472;2022-12-01T10:00:15;8.14;68.92
76239;SHT30;65043;48.392;-4.472;2022-12-01T10:03:14;8.19;68.75
76239;SHT30;65043;48.392;-4.472;2022-12-01T10:05:49;8.19;68.75
76239;SHT30;65043;48.392;-4.472;2022-12-01T10:08:19;8.24;68.62
76239;SHT30;65043;48.392;-4.472;2022-12-01T10:10:49;8.27;68.67
76239;SHT30;65043;48.392;-4.472;2022-12-01T10:13:26;8.32;68.54
76239;SHT30;65043;48.392;-4.472;2022-12-01T10:29:12;8.54;68.46
76239;SHT30;65043;48.392;-4.472;2022-12-01T10:34:39;8.61;68.49
76239;SHT30;65043;48.392;-4.472;2022-12-01T10:37:16;8.65;68.52
76239;SHT30;65043;48.392;-4.472;2022-12-01T10:39:43;8.69;68.41
76239;SHT30;65043;48.392;-4.472;2022-12-01T10:44:45;8.81;68.57
76239;SHT30;65043;48.392;-4.472;2022-12-01T10:47:18;8.85;68.45
76239;SHT30;65043;48.392;-4.472;2022-12-01T10:49:44;8.91;68.39
76239;SHT30;65043;48.392;-4.472;2022-12-01T10:52:35;8.95;68.36
76239;SHT30;65043;48.392;-4.472;2022-12-01T10:55:04;8.99;68.33
76239;SHT30;65043;48.392;-4.472;2022-12-01T10:57:43;9.01;68.31
76239;SHT30;65043;48.392;-4.472;2022-12-01T11:00:21;9.09;68.31
76239;SHT30;65043;48.392;-4.472;2022-12-01T11:02:47;9.12;68.22
76239;SHT30;65043;48.392;-4.472;2022-12-01T11:05:27;9.16;67.96
76239;SHT30;65043;48.392;-4.472;2022-12-01T11:07:56;9.20;67.96
76239;SHT30;65043;48.392;-4.472;2022-12-01T11:10:25;9.23;67.94
76239;SHT30;65043;48.392;-4.472;2022-12-01T11:15:28;9.30;67.60
76239;SHT30;65043;48.392;-4.472;2022-12-01T11:18:01;9.35;67.66
76239;SHT30;65043;48.392;-4.472;2022-12-01T11:20:37;9.39;67.66
76239;SHT30;65043;48.392;-4.472;2022-12-01T11:28:32;9.51;67.53
76239;SHT30;65043;48.392;-4.472;2022-12-01T11:31:01;9.57;67.67
76239;SHT30;65043;48.392;-4.472;2022-12-01T11:33:29;9.57;67.56
76239;SHT30;65043;48.392;-4.472;2022-12-01T11:35:57;9.61;67.63
76239;SHT30;65043;48.392;-4.472;2022-12-01T11:38:28;9.64;67.58
76239;SHT30;65043;48.392;-4.472;2022-12-01T11:40:56;9.71;67.37
76239;SHT30;65043;48.392;-4.472;2022-12-01T11:43:33;9.75;67.26
76239;SHT30;65043;48.392;-4.472;2022-12-01T11:46:03;9.84;66.96
76239;SHT30;65043;48.392;-4.472;2022-12-01T11:48:31;9.90;66.84
76239;SHT30;65043;48.392;-4.472;2022-12-01T11:53:44;10.16;65.83
76239;SHT30;65043;48.392;-4.472;2022-12-01T11:56:29;10.28;65.19
76239;SHT30;65043;48.392;-4.472;2022-12-01T11:59:10;10.41;64.76
76239;SHT30;65043;48.392;-4.472;2022-12-01T12:02:03;10.46;64.06
76239;SHT30;65043;48.392;-4.472;2022-12-01T12:04:43;10.56;64.12
76239;SHT30;65043;48.392;-4.472;2022-12-01T12:27:35;11.21;61.81
76239;SHT30;65043;48.392;-4.472;2022-12-01T12:30:26;11.23;61.81
76239;SHT30;65043;48.392;-4.472;2022-12-01T12:35:43;11.38;61.04
76239;SHT30;65043;48.392;-4.472;2022-12-01T12:38:22;11.44;61.01
76239;SHT30;65043;48.392;-4.472;2022-12-01T12:43:46;11.50;60.59
76239;SHT30;65043;48.392;-4.472;2022-12-01T12:46:10;11.57;60.19
76239;SHT30;65043;48.392;-4.472;2022-12-01T12:51:15;11.68;59.77
76239;SHT30;65043;48.392;-4.472;2022-12-01T12:54:29;11.71;59.47
76239;SHT30;65043;48.392;-4.472;2022-12-01T12:57:05;11.78;59.10
76239;SHT30;65043;48.392;-4.472;2022-12-01T12:59:45;11.90;58.47
76239;SHT30;65043;48.392;-4.472;2022-12-01T13:02:39;12.00;58.53
76239;SHT30;65043;48.392;-4.472;2022-12-01T13:07:57;12.09;58.14
76239;SHT30;65043;48.392;-4.472;2022-12-01T13:10:39;12.13;57.47
76239;SHT30;65043;48.392;-4.472;2022-12-01T13:15:41;12.23;57.68
76239;SHT30;65043;48.392;-4.472;2022-12-01T13:18:34;12.29;57.69
76239;SHT30;65043;48.392;-4.472;2022-12-01T13:21:03;12.31;57.87
76239;SHT30;65043;48.392;-4.472;2022-12-01T13:23:30;12.38;57.84
76239;SHT30;65043;48.392;-4.472;2022-12-01T13:25:58;12.40;57.64
76239;SHT30;65043;48.392;-4.472;2022-12-01T13:28:39;12.44;58.28
76239;SHT30;65043;48.392;-4.472;2022-12-01T13:31:08;12.45;58.06
76239;SHT30;65043;48.392;-4.472;2022-12-01T13:33:36;12.47;57.88
76239;SHT30;65043;48.392;-4.472;2022-12-01T13:36:08;12.47;57.91
76239;SHT30;65043;48.392;-4.472;2022-12-01T13:38:35;12.50;57.82
76239;SHT30;65043;48.392;-4.472;2022-12-01T13:41:29;12.50;57.98
76239;SHT30;65043;48.392;-4.472;2022-12-01T13:57:33;12.53;59.18
76239;SHT30;65043;48.392;-4.472;2022-12-01T14:02:32;12.53;58.38
76239;SHT30;65043;48.392;-4.472;2022-12-01T14:07:52;12.58;58.36
76239;SHT30;65043;48.392;-4.472;2022-12-01T14:12:56;12.58;57.81
76239;SHT30;65043;48.392;-4.472;2022-12-01T14:15:43;12.62;57.47
76239;SHT30;65043;48.392;-4.472;2022-12-01T14:20:51;12.65;57.13
76239;SHT30;65043;48.392;-4.472;2022-12-01T14:29:22;12.57;56.73
76239;SHT30;65043;48.392;-4.472;2022-12-01T14:34:18;12.57;56.03
76239;SHT30;65043;48.392;-4.472;2022-12-01T14:36:56;12.57;55.84
76239;SHT30;65043;48.392;-4.472;2022-12-01T14:39:41;12.58;55.87
76239;SHT30;65043;48.392;-4.472;2022-12-01T14:44:52;12.58;55.51
76239;SHT30;65043;48.392;-4.472;2022-12-01T14:47:22;12.57;55.63
76239;SHT30;65043;48.392;-4.472;2022-12-01T14:52:29;12.54;56.14
76239;SHT30;65043;48.392;-4.472;2022-12-01T14:54:58;12.55;56.22
76239;SHT30;65043;48.392;-4.472;2022-12-01T14:57:30;12.55;56.86
76239;SHT30;65043;48.392;-4.472;2022-12-01T15:02:30;12.50;57.13
76239;SHT30;65043;48.392;-4.472;2022-12-01T15:05:13;12.45;57.38
76239;SHT30;65043;48.392;-4.472;2022-12-01T15:07:41;12.44;57.44
76239;SHT30;65043;48.392;-4.472;2022-12-01T15:10:19;12.38;57.55
76239;SHT30;65043;48.392;-4.472;2022-12-01T15:12:47;12.37;57.43
76239;SHT30;65043;48.392;-4.472;2022-12-01T15:15:25;12.31;57.34
76239;SHT30;65043;48.392;-4.472;2022-12-01T15:17:54;12.27;57.62
76239;SHT30;65043;48.392;-4.472;2022-12-01T15:22:57;12.23;57.49
76239;SHT30;65043;48.392;-4.472;2022-12-01T15:25:29;12.19;58.32
76239;SHT30;65043;48.392;-4.472;2022-12-01T15:28:19;12.13;58.55
76239;SHT30;65043;48.392;-4.472;2022-12-01T15:30:53;12.07;58.68
76239;SHT30;65043;48.392;-4.472;2022-12-01T15:33:28;12.02;58.74
76239;SHT30;65043;48.392;-4.472;2022-12-01T15:35:54;12.02;59.04
76239;SHT30;65043;48.392;-4.472;2022-12-01T15:38:24;11.97;59.08
76239;SHT30;65043;48.392;-4.472;2022-12-01T15:40:52;11.93;59.00
76239;SHT30;65043;48.392;-4.472;2022-12-01T15:43:25;11.83;59.19
76239;SHT30;65043;48.392;-4.472;2022-12-01T15:45:58;11.78;59.56
76239;SHT30;65043;48.392;-4.472;2022-12-01T15:48:32;11.72;59.85
76239;SHT30;65043;48.392;-4.472;2022-12-01T15:51:14;11.65;60.05
76239;SHT30;65043;48.392;-4.472;2022-12-01T15:53:56;11.62;60.19
76239;SHT30;65043;48.392;-4.472;2022-12-01T15:56:37;11.61;60.25
76239;SHT30;65043;48.392;-4.472;2022-12-01T16:01:34;11.50;61.09
76239;SHT30;65043;48.392;-4.472;2022-12-01T16:04:14;11.42;61.06
76239;SHT30;65043;48.392;-4.472;2022-12-01T16:06:41;11.35;61.20
76239;SHT30;65043;48.392;-4.472;2022-12-01T16:09:24;11.27;61.53
76239;SHT30;65043;48.392;-4.472;2022-12-01T16:15:40;11.13;62.16
76239;SHT30;65043;48.392;-4.472;2022-12-01T16:20:16;10.96;62.93
76239;SHT30;65043;48.392;-4.472;2022-12-01T16:22:47;10.90;63.41
76239;SHT30;65043;48.392;-4.472;2022-12-01T16:25:24;10.86;63.62
76239;SHT30;65043;48.392;-4.472;2022-12-01T16:27:54;10.81;63.87
76239;SHT30;65043;48.392;-4.472;2022-12-01T16:30:23;10.79;64.29
76239;SHT30;65043;48.392;-4.472;2022-12-01T16:32:50;10.73;64.60
76239;SHT30;65043;48.392;-4.472;2022-12-01T16:37:46;10.66;64.82
76239;SHT30;65043;48.392;-4.472;2022-12-01T16:40:13;10.63;64.92
76239;SHT30;65043;48.392;-4.472;2022-12-01T16:42:39;10.60;65.08
76239;SHT30;65043;48.392;-4.472;2022-12-01T16:45:05;10.56;65.22
76239;SHT30;65043;48.392;-4.472;2022-12-01T16:47:32;10.56;65.23
76239;SHT30;65043;48.392;-4.472;2022-12-01T16:49:58;10.52;65.35
76239;SHT30;65043;48.392;-4.472;2022-12-01T16:52:23;10.48;65.52
76239;SHT30;65043;48.392;-4.472;2022-12-01T16:54:49;10.46;65.92
76239;SHT30;65043;48.392;-4.472;2022-12-01T16:57:15;10.45;66.04
76239;SHT30;65043;48.392;-4.472;2022-12-01T16:59:42;10.43;66.37
76239;SHT30;65043;48.392;-4.472;2022-12-01T17:02:09;10.41;66.60
76239;SHT30;65043;48.392;-4.472;2022-12-01T17:04:35;10.41;66.45
76239;SHT30;65043;48.392;-4.472;2022-12-01T17:07:01;10.36;66.44
76239;SHT30;65043;48.392;-4.472;2022-12-01T17:09:27;10.35;66.48
76239;SHT30;65043;48.392;-4.472;2022-12-01T17:11:53;10.34;66.66
76239;SHT30;65043;48.392;-4.472;2022-12-01T17:14:21;10.32;66.81
76239;SHT30;65043;48.392;-4.472;2022-12-01T17:16:47;10.32;66.93
76239;SHT30;65043;48.392;-4.472;2022-12-01T17:19:12;10.29;66.82
76239;SHT30;65043;48.392;-4.472;2022-12-01T17:21:38;10.29;67.05
76239;SHT30;65043;48.392;-4.472;2022-12-01T17:24:04;10.29;67.05
76239;SHT30;65043;48.392;-4.472;2022-12-01T17:26:29;10.28;67.05
76239;SHT30;65043;48.392;-4.472;2022-12-01T17:28:55;10.28;66.96
76239;SHT30;65043;48.392;-4.472;2022-12-01T17:31:21;10.26;67.05
76239;SHT30;65043;48.392;-4.472;2022-12-01T17:33:47;10.24;67.17
76239;SHT30;65043;48.392;-4.472;2022-12-01T17:36:13;10.21;67.56
76239;SHT30;65043;48.392;-4.472;2022-12-01T17:38:41;10.21;67.48
76239;SHT30;65043;48.392;-4.472;2022-12-01T17:41:11;10.21;67.48
76239;SHT30;65043;48.392;-4.472;2022-12-01T17:43:37;10.16;67.59
76239;SHT30;65043;48.392;-4.472;2022-12-01T17:46:05;10.15;67.99
76239;SHT30;65043;48.392;-4.472;2022-12-01T17:48:44;10.16;68.19
76239;SHT30;65043;48.392;-4.472;2022-12-01T17:51:11;10.16;68.13
76239;SHT30;65043;48.392;-4.472;2022-12-01T17:53:37;10.18;68.21
76239;SHT30;65043;48.392;-4.472;2022-12-01T17:56:10;10.16;68.24
76239;SHT30;65043;48.392;-4.472;2022-12-01T17:58:36;10.18;68.46
76239;SHT30;65043;48.392;-4.472;2022-12-01T18:01:03;10.18;68.64
76239;SHT30;65043;48.392;-4.472;2022-12-01T18:03:28;10.19;68.85
76239;SHT30;65043;48.392;-4.472;2022-12-01T18:05:59;10.19;68.98
76239;SHT30;65043;48.392;-4.472;2022-12-01T18:08:26;10.21;68.91
76239;SHT30;65043;48.392;-4.472;2022-12-01T18:10:53;10.22;69.04
76239;SHT30;65043;48.392;-4.472;2022-12-01T18:13:19;10.24;69.32
76239;SHT30;65043;48.392;-4.472;2022-12-01T18:15:45;10.25;69.39
76239;SHT30;65043;48.392;-4.472;2022-12-01T18:18:10;10.24;69.08
76239;SHT30;65043;48.392;-4.472;2022-12-01T18:20:42;10.28;69.46
76239;SHT30;65043;48.392;-4.472;2022-12-01T18:23:09;10.32;69.56
76239;SHT30;65043;48.392;-4.472;2022-12-01T18:25:35;10.32;69.47
76239;SHT30;65043;48.392;-4.472;2022-12-01T18:28:01;10.35;69.58